Time;durP1;ratioP1;P1;durP2;ratioP2;P2;SDS_P1;SDS_P2;PMS_P1;PMS_P2;Temp;Humidity;BMP_temperature;BMP_pressure;BME280_temperature;BME280_humidity;BME280_pressure;Samples;Min_cycle;Max_cycle;Signal;HPM_P1;HPM_P2
2024/01/30 00:01:15;;;;;;;12.93;11.63;;;6.00;99.90;;;;;;5108237;27;20092;-66
2024/01/30 00:03:41;;;;;;;13.63;12.07;;;5.90;99.90;;;;;;5090066;28;20436;-66
2024/01/30 00:06:07;;;;;;;14.52;12.77;;;5.80;99.90;;;;;;5087402;28;20040;-67
2024/01/30 00:08:33;;;;;;;14.85;12.55;;;5.90;99.90;;;;;;5120432;27;20040;-67
2024/01/30 00:10:59;;;;;;;15.98;13.10;;;5.80;99.90;;;;;;5085476;28;20062;-66
2024/01/30 00:13:25;;;;;;;17.30;13.85;;;5.90;99.90;;;;;;5083697;28;20055;-67
2024/01/30 00:15:50;;;;;;;18.05;14.20;;;5.80;99.90;;;;;;5085014;28;20052;-67
2024/01/30 00:18:16;;;;;;;18.30;14.07;;;5.90;99.90;;;;;;5084602;28;20042;-66
2024/01/30 00:20:42;;;;;;;18.10;14.02;;;5.90;99.90;;;;;;5087648;28;20071;-66
2024/01/30 00:23:08;;;;;;;17.92;12.95;;;5.90;99.90;;;;;;5087818;28;20047;-67
2024/01/30 00:25:34;;;;;;;18.35;13.57;;;6.00;99.90;;;;;;5085201;28;20036;-67
2024/01/30 00:28:00;;;;;;;19.17;13.48;;;5.90;99.90;;;;;;5084350;28;20589;-67
2024/01/30 00:30:25;;;;;;;19.17;14.18;;;5.90;99.90;;;;;;5087194;28;20496;-67
2024/01/30 00:32:51;;;;;;;19.95;13.88;;;6.00;99.90;;;;;;5093256;28;20470;-67
2024/01/30 00:35:16;;;;;;;15.85;13.95;;;6.00;99.90;;;;;;5121677;27;20062;-66
2024/01/30 00:37:42;;;;;;;22.02;14.30;;;6.00;99.90;;;;;;5083156;28;20693;-66
2024/01/30 00:40:10;;;;;;;15.98;13.95;;;6.10;99.90;;;;;;5085098;28;20047;-67
2024/01/30 00:42:35;;;;;;;17.48;14.48;;;6.10;99.90;;;;;;5087123;28;20155;-67
2024/01/30 00:45:01;;;;;;;16.75;13.65;;;6.10;99.90;;;;;;5086480;28;20126;-67
2024/01/30 00:47:29;;;;;;;18.55;14.50;;;6.10;99.90;;;;;;5084711;28;20052;-66
2024/01/30 00:49:54;;;;;;;15.52;13.15;;;6.10;99.90;;;;;;5085010;28;20074;-66
2024/01/30 00:52:20;;;;;;;15.85;13.98;;;6.10;99.90;;;;;;5084290;28;21016;-66
2024/01/30 00:54:45;;;;;;;16.38;13.75;;;6.10;99.90;;;;;;5121228;27;20036;-66
2024/01/30 00:57:11;;;;;;;16.75;14.25;;;6.00;99.90;;;;;;5086484;28;20047;-66
2024/01/30 00:59:37;;;;;;;18.20;14.18;;;6.10;99.90;;;;;;5078790;28;20874;-67
2024/01/30 01:02:04;;;;;;;17.70;13.93;;;6.10;99.90;;;;;;5078826;28;20120;-67
2024/01/30 01:04:29;;;;;;;17.92;14.07;;;6.10;99.90;;;;;;5085780;28;20028;-67
2024/01/30 01:06:55;;;;;;;15.85;14.10;;;6.10;99.90;;;;;;5082745;28;20526;-66
2024/01/30 01:09:21;;;;;;;19.63;14.55;;;6.10;99.90;;;;;;5081380;28;20035;-66
2024/01/30 01:11:46;;;;;;;19.85;14.63;;;6.10;99.90;;;;;;5082799;28;20071;-67
2024/01/30 01:14:12;;;;;;;15.73;14.13;;;6.20;99.90;;;;;;5080360;28;20044;-67
2024/01/30 01:16:37;;;;;;;16.13;13.88;;;6.20;99.90;;;;;;5080874;28;20048;-67
2024/01/30 01:19:03;;;;;;;18.35;14.13;;;6.20;99.90;;;;;;5078864;28;20040;-67
2024/01/30 01:21:29;;;;;;;17.88;14.32;;;6.20;99.90;;;;;;5078813;28;20040;-67
2024/01/30 01:23:54;;;;;;;17.63;14.10;;;6.10;99.90;;;;;;5086453;28;20540;-67
2024/01/30 01:26:21;;;;;;;14.93;13.40;;;6.20;99.90;;;;;;5084018;28;20063;-67
2024/01/30 01:28:46;;;;;;;16.13;14.07;;;6.20;99.90;;;;;;5084631;28;20085;-67
2024/01/30 01:31:12;;;;;;;16.33;13.55;;;6.20;99.90;;;;;;5084594;28;20044;-67
2024/01/30 01:33:38;;;;;;;18.73;14.70;;;6.20;99.90;;;;;;5086834;28;20032;-67
2024/01/30 01:36:04;;;;;;;16.95;14.00;;;6.20;99.90;;;;;;5087533;28;20079;-67
2024/01/30 01:38:29;;;;;;;17.83;13.52;;;6.20;99.90;;;;;;5085069;28;20036;-66
2024/01/30 01:40:55;;;;;;;16.95;13.25;;;6.20;99.90;;;;;;5084354;28;20048;-67
2024/01/30 01:43:21;;;;;;;15.52;13.93;;;6.20;99.90;;;;;;5081367;28;20119;-67
2024/01/30 01:45:46;;;;;;;16.58;14.65;;;6.50;99.90;;;;;;5087271;28;20031;-67
2024/01/30 01:48:13;;;;;;;14.80;13.27;;;6.20;99.90;;;;;;5083403;28;20024;-67
2024/01/30 01:50:39;;;;;;;17.13;15.32;;;6.20;99.90;;;;;;5086910;28;20032;-67
2024/01/30 01:53:07;;;;;;;16.80;14.18;;;6.20;99.90;;;;;;5084899;28;20028;-66
2024/01/30 01:55:35;;;;;;;14.70;13.10;;;6.10;99.90;;;;;;5085320;28;20051;-67
2024/01/30 01:58:00;;;;;;;15.02;13.45;;;6.10;99.90;;;;;;5085479;28;20063;-67
2024/01/30 02:00:26;;;;;;;15.52;12.93;;;6.10;99.90;;;;;;5083995;28;20083;-67
2024/01/30 02:02:54;;;;;;;14.43;12.95;;;6.10;99.90;;;;;;5088485;28;20482;-67
2024/01/30 02:05:20;;;;;;;15.15;13.38;;;6.10;99.90;;;;;;5085559;28;20037;-67
2024/01/30 02:07:46;;;;;;;15.60;13.05;;;6.00;99.90;;;;;;5082267;28;20124;-67
2024/01/30 02:10:12;;;;;;;17.45;13.80;;;5.90;99.90;;;;;;5084690;28;20633;-67
2024/01/30 02:12:38;;;;;;;15.52;13.25;;;6.00;99.90;;;;;;5113508;27;20072;-66
2024/01/30 02:15:05;;;;;;;16.77;12.75;;;6.00;99.90;;;;;;5085244;28;20064;-67
2024/01/30 02:17:31;;;;;;;16.30;13.13;;;6.00;99.90;;;;;;5097035;28;20045;-67
2024/01/30 02:19:57;;;;;;;14.80;13.32;;;6.00;99.90;;;;;;5118655;27;20041;-67
2024/01/30 02:22:23;;;;;;;16.23;12.90;;;6.00;99.90;;;;;;5123357;27;20046;-67
2024/01/30 02:24:49;;;;;;;14.38;12.88;;;6.10;99.90;;;;;;5084406;28;20375;-67
2024/01/30 02:27:14;;;;;;;15.20;13.00;;;6.10;99.90;;;;;;5087886;28;20058;-67
2024/01/30 02:29:40;;;;;;;13.65;12.23;;;6.10;99.90;;;;;;5087372;28;20097;-67
2024/01/30 02:32:06;;;;;;;15.73;12.05;;;6.10;99.90;;;;;;5080518;28;20038;-67
2024/01/30 02:34:32;;;;;;;16.98;12.48;;;6.20;99.90;;;;;;5083856;28;20044;-67
2024/01/30 02:36:58;;;;;;;14.48;12.38;;;6.20;99.90;;;;;;5116131;27;20043;-67
2024/01/30 02:39:23;;;;;;;16.73;13.82;;;6.20;99.90;;;;;;5084228;28;20051;-67
2024/01/30 02:41:49;;;;;;;22.58;13.80;;;6.20;99.90;;;;;;5080951;28;20043;-67
2024/01/30 02:44:15;;;;;;;14.60;12.80;;;6.20;99.90;;;;;;5088906;28;20036;-67
2024/01/30 02:46:40;;;;;;;14.65;13.05;;;6.30;99.90;;;;;;5084248;28;20049;-67
2024/01/30 02:49:06;;;;;;;14.35;12.82;;;6.30;99.90;;;;;;5082710;28;20451;-67
2024/01/30 02:51:32;;;;;;;16.25;12.90;;;6.30;99.90;;;;;;5080665;28;20044;-67
2024/01/30 02:53:57;;;;;;;15.60;12.20;;;6.30;99.90;;;;;;5081482;28;20467;-67
2024/01/30 02:56:23;;;;;;;14.07;11.90;;;6.30;99.90;;;;;;5088254;28;20047;-67
2024/01/30 02:58:48;;;;;;;15.13;12.80;;;6.30;99.90;;;;;;5081483;28;20029;-66
2024/01/30 03:01:14;;;;;;;17.23;12.10;;;6.30;99.90;;;;;;5080957;28;20445;-67
2024/01/30 03:03:40;;;;;;;15.10;13.50;;;6.40;99.90;;;;;;5084551;28;20044;-67
2024/01/30 03:06:07;;;;;;;16.73;12.95;;;6.40;99.90;;;;;;5076199;28;20407;-67
2024/01/30 03:08:34;;;;;;;18.95;12.32;;;6.40;99.90;;;;;;5080336;28;20036;-67
2024/01/30 03:11:00;;;;;;;17.90;13.07;;;6.40;99.90;;;;;;5086163;28;20032;-67
2024/01/30 03:13:25;;;;;;;13.88;12.48;;;6.30;99.90;;;;;;5086028;28;20036;-67
2024/01/30 03:15:51;;;;;;;15.38;12.40;;;6.30;99.90;;;;;;5087893;28;20040;-67
2024/01/30 03:18:17;;;;;;;17.75;13.20;;;6.30;99.90;;;;;;5113357;27;20246;-67
2024/01/30 03:20:43;;;;;;;17.70;12.43;;;6.40;99.90;;;;;;5087719;28;20043;-67
2024/01/30 03:23:09;;;;;;;18.10;12.65;;;6.30;99.90;;;;;;5098148;28;20038;-67
2024/01/30 03:25:34;;;;;;;15.70;11.82;;;6.40;99.90;;;;;;5096180;28;20063;-67
2024/01/30 03:28:00;;;;;;;14.38;12.50;;;6.30;99.90;;;;;;5091249;28;20039;-67
2024/01/30 03:30:25;;;;;;;14.10;12.55;;;6.30;99.90;;;;;;5089582;28;20089;-67
2024/01/30 03:32:51;;;;;;;12.93;11.60;;;6.30;99.90;;;;;;5082481;28;20685;-67
2024/01/30 03:35:19;;;;;;;12.95;11.63;;;6.30;99.90;;;;;;5090068;28;20324;-66
2024/01/30 03:37:44;;;;;;;13.18;11.82;;;6.30;99.90;;;;;;5089317;28;20027;-67
2024/01/30 03:40:10;;;;;;;13.48;11.57;;;6.30;99.90;;;;;;5087515;28;20044;-67
2024/01/30 03:42:36;;;;;;;14.15;12.45;;;6.30;99.90;;;;;;5088432;28;20047;-67
2024/01/30 03:45:02;;;;;;;15.32;11.02;;;6.30;99.90;;;;;;5085641;28;20474;-67
2024/01/30 03:47:28;;;;;;;13.80;12.40;;;6.30;99.90;;;;;;5089591;28;20077;-67
2024/01/30 03:49:53;;;;;;;14.13;12.60;;;6.30;99.90;;;;;;5071218;28;20044;-67
2024/01/30 03:52:19;;;;;;;14.35;12.48;;;6.30;99.90;;;;;;5087695;28;20072;-67
2024/01/30 03:54:44;;;;;;;14.05;11.85;;;6.30;99.90;;;;;;5069731;28;20390;-67
2024/01/30 03:57:10;;;;;;;13.15;11.38;;;6.30;99.90;;;;;;5088898;28;20473;-67
2024/01/30 03:59:36;;;;;;;13.02;11.73;;;6.40;99.90;;;;;;5089259;28;20478;-67
2024/01/30 04:02:02;;;;;;;13.68;12.07;;;6.40;99.90;;;;;;5087680;28;20044;-67
2024/01/30 04:04:28;;;;;;;15.45;13.10;;;6.40;99.90;;;;;;5118361;27;20040;-67
2024/01/30 04:06:53;;;;;;;14.95;11.50;;;6.40;99.90;;;;;;5085834;28;20449;-67
2024/01/30 04:09:19;;;;;;;11.85;10.75;;;6.40;99.90;;;;;;5085067;28;20036;-67
2024/01/30 04:11:44;;;;;;;14.68;10.52;;;6.40;99.90;;;;;;5088255;28;20037;-67
2024/01/30 04:14:10;;;;;;;12.32;11.13;;;6.40;99.90;;;;;;5086956;28;20518;-67
2024/01/30 04:16:36;;;;;;;14.13;11.23;;;6.40;99.90;;;;;;5089288;28;20128;-67
2024/01/30 04:19:02;;;;;;;13.07;11.13;;;6.50;99.90;;;;;;5087193;28;20127;-67
2024/01/30 04:21:27;;;;;;;11.05;9.80;;;6.50;99.90;;;;;;5086465;28;20075;-67
2024/01/30 04:23:53;;;;;;;14.23;11.85;;;6.50;99.90;;;;;;5089916;28;20051;-67
2024/01/30 04:26:19;;;;;;;12.73;10.35;;;6.60;99.90;;;;;;5088219;28;20119;-67
2024/01/30 04:28:45;;;;;;;12.63;10.32;;;6.90;99.90;;;;;;5075178;28;20037;-67
2024/01/30 04:31:11;;;;;;;11.88;10.68;;;6.60;99.90;;;;;;5087547;28;20051;-67
2024/01/30 04:33:37;;;;;;;14.50;10.20;;;6.60;99.90;;;;;;5104848;27;20044;-67
2024/01/30 04:36:03;;;;;;;12.68;9.90;;;6.70;99.90;;;;;;5084354;28;20024;-67
2024/01/30 04:38:29;;;;;;;12.10;9.80;;;6.70;99.90;;;;;;5086976;28;20032;-67
2024/01/30 04:40:54;;;;;;;12.40;10.48;;;6.80;99.90;;;;;;5087332;28;20043;-67
2024/01/30 04:43:20;;;;;;;14.02;11.15;;;6.70;99.90;;;;;;5088250;28;20058;-67
2024/01/30 04:45:46;;;;;;;12.05;10.73;;;6.80;99.90;;;;;;5085211;28;20032;-67
2024/01/30 04:48:11;;;;;;;12.95;10.63;;;6.80;99.90;;;;;;5088388;28;20033;-67
2024/01/30 04:50:37;;;;;;;12.63;10.55;;;6.80;99.90;;;;;;5088162;28;20089;-67
2024/01/30 04:53:03;;;;;;;13.50;10.23;;;6.80;99.90;;;;;;5087011;28;20039;-67
2024/01/30 04:55:28;;;;;;;14.25;10.82;;;6.80;99.90;;;;;;5086423;28;20039;-67
2024/01/30 04:57:54;;;;;;;12.25;11.05;;;6.80;99.90;;;;;;5085085;28;20125;-67
2024/01/30 05:00:19;;;;;;;11.35;10.20;;;6.80;99.90;;;;;;5083986;28;20036;-67
2024/01/30 05:02:45;;;;;;;12.40;10.60;;;6.80;99.90;;;;;;5073038;28;20048;-67
2024/01/30 05:05:11;;;;;;;11.60;10.10;;;6.70;99.90;;;;;;5086527;28;21274;-67
2024/01/30 05:07:37;;;;;;;11.40;10.18;;;7.70;99.90;;;;;;5085802;28;20510;-67
2024/01/30 05:10:03;;;;;;;11.43;9.38;;;6.80;99.90;;;;;;5087331;28;20052;-67
2024/01/30 05:12:29;;;;;;;10.60;9.57;;;6.80;99.90;;;;;;5086483;28;20037;-67
2024/01/30 05:14:54;;;;;;;12.00;10.38;;;6.80;99.90;;;;;;5117197;27;20406;-67
2024/01/30 05:17:20;;;;;;;11.10;9.98;;;6.90;99.90;;;;;;5085470;28;20506;-67
2024/01/30 05:19:46;;;;;;;14.10;10.40;;;6.90;99.90;;;;;;5087084;28;20449;-67
2024/01/30 05:22:15;;;;;;;16.83;9.07;;;6.90;99.90;;;;;;5112369;27;20040;-67
2024/01/30 05:24:43;;;;;;;11.70;9.85;;;6.90;99.90;;;;;;5071345;28;20053;-67
2024/01/30 05:27:09;;;;;;;10.80;9.68;;;6.90;99.90;;;;;;5084873;28;20036;-67
2024/01/30 05:29:35;;;;;;;10.93;9.82;;;7.00;99.90;;;;;;5066421;28;20402;-67
2024/01/30 05:32:01;;;;;;;10.73;9.57;;;7.00;99.90;;;;;;5083661;28;20425;-67
2024/01/30 05:34:26;;;;;;;11.18;9.27;;;7.00;99.90;;;;;;5082814;28;20517;-67
2024/01/30 05:36:52;;;;;;;13.50;9.57;;;7.00;99.90;;;;;;5082235;28;20071;-67
2024/01/30 05:39:18;;;;;;;11.80;9.68;;;7.10;99.90;;;;;;5081274;28;20101;-67
2024/01/30 05:41:43;;;;;;;13.23;10.15;;;7.10;99.90;;;;;;5112188;27;20036;-66
2024/01/30 05:44:09;;;;;;;10.38;9.38;;;7.00;99.90;;;;;;5078732;28;20090;-66
2024/01/30 05:46:35;;;;;;;11.77;9.60;;;7.10;99.90;;;;;;5080143;28;20039;-67
2024/01/30 05:49:01;;;;;;;12.75;9.60;;;7.10;99.90;;;;;;5071582;28;20462;-67
2024/01/30 05:51:27;;;;;;;11.57;9.27;;;7.10;99.90;;;;;;5078241;28;20041;-67
2024/01/30 05:53:53;;;;;;;10.93;9.75;;;7.10;99.90;;;;;;5078351;28;20048;-67
2024/01/30 05:56:19;;;;;;;14.00;9.38;;;7.10;99.90;;;;;;5084497;28;20051;-67
2024/01/30 05:58:44;;;;;;;10.90;9.80;;;7.10;99.90;;;;;;5083137;28;20035;-67
2024/01/30 06:01:10;;;;;;;10.23;9.23;;;7.10;99.90;;;;;;5078839;28;20071;-67
2024/01/30 06:03:36;;;;;;;10.13;9.15;;;7.20;99.90;;;;;;5080062;28;20048;-67
2024/01/30 06:06:01;;;;;;;10.10;8.75;;;7.20;99.90;;;;;;5087925;28;20042;-67
2024/01/30 06:08:27;;;;;;;11.23;9.70;;;7.10;99.90;;;;;;5086193;28;20250;-67
2024/01/30 06:10:52;;;;;;;10.23;9.23;;;7.10;99.90;;;;;;5083934;28;20040;-67
2024/01/30 06:13:18;;;;;;;11.82;9.52;;;7.10;99.90;;;;;;5080115;28;20075;-67
2024/01/30 06:15:44;;;;;;;14.07;9.88;;;7.20;99.90;;;;;;5082482;28;20470;-67
2024/01/30 06:18:09;;;;;;;10.70;9.07;;;7.10;99.90;;;;;;5065932;28;20405;-67
2024/01/30 06:20:35;;;;;;;10.55;9.55;;;7.10;99.90;;;;;;5081310;28;20514;-67
2024/01/30 06:23:01;;;;;;;10.93;8.63;;;7.10;99.90;;;;;;5084020;28;20047;-67
2024/01/30 06:25:27;;;;;;;10.43;8.43;;;7.20;99.90;;;;;;5082114;28;20581;-67
2024/01/30 06:27:52;;;;;;;11.27;8.55;;;7.20;99.90;;;;;;5118278;27;20043;-67
2024/01/30 06:30:18;;;;;;;11.63;8.73;;;7.20;99.90;;;;;;5086588;28;20040;-67
2024/01/30 06:32:44;;;;;;;11.40;8.90;;;7.30;99.90;;;;;;5084147;28;20044;-67
2024/01/30 06:35:10;;;;;;;10.25;9.25;;;7.30;99.90;;;;;;5083461;28;20032;-67
2024/01/30 06:37:36;;;;;;;9.50;8.43;;;7.30;99.90;;;;;;5083653;28;20028;-67
2024/01/30 06:40:04;;;;;;;10.23;8.60;;;7.30;99.90;;;;;;5114709;27;20032;-67
2024/01/30 06:42:30;;;;;;;9.18;8.23;;;7.40;99.90;;;;;;5082966;28;20044;-67
2024/01/30 06:44:55;;;;;;;11.73;9.35;;;7.40;99.90;;;;;;5088428;28;20078;-67
2024/01/30 06:47:21;;;;;;;9.73;8.55;;;7.70;99.90;;;;;;5088589;28;20032;-67
2024/01/30 06:49:47;;;;;;;11.02;8.45;;;7.50;99.90;;;;;;5086027;28;20048;-67
2024/01/30 06:52:13;;;;;;;9.88;8.80;;;7.40;99.90;;;;;;5083505;28;20528;-67
2024/01/30 06:54:39;;;;;;;12.93;8.70;;;7.50;99.90;;;;;;5079426;28;20063;-67
2024/01/30 06:57:08;;;;;;;10.40;8.65;;;7.50;99.90;;;;;;5079175;28;20507;-67
2024/01/30 06:59:34;;;;;;;13.40;9.57;;;7.50;99.90;;;;;;5087019;28;20557;-67
2024/01/30 07:02:00;;;;;;;8.95;7.82;;;7.60;99.90;;;;;;5113159;27;20075;-67
2024/01/30 07:04:26;;;;;;;10.55;7.57;;;7.60;99.90;;;;;;5111643;27;20064;-67
2024/01/30 07:06:53;;;;;;;9.57;8.57;;;7.70;99.90;;;;;;5080822;28;20032;-67
2024/01/30 07:09:19;;;;;;;14.60;9.52;;;7.70;99.90;;;;;;5087115;28;20044;-67
2024/01/30 07:11:44;;;;;;;11.90;8.88;;;7.80;99.90;;;;;;5081150;28;20039;-67
2024/01/30 07:14:10;;;;;;;10.48;8.30;;;7.70;99.90;;;;;;5083294;28;20101;-67
2024/01/30 07:16:36;;;;;;;10.55;8.88;;;7.70;99.90;;;;;;5113829;27;20051;-67
2024/01/30 07:19:02;;;;;;;10.65;8.35;;;7.70;99.90;;;;;;5082669;28;20550;-66
2024/01/30 07:21:28;;;;;;;11.18;8.82;;;7.70;99.90;;;;;;5083867;28;20106;-67
2024/01/30 07:23:57;;;;;;;9.98;9.00;;;7.70;99.90;;;;;;5085320;28;20037;-67
2024/01/30 07:26:23;;;;;;;10.00;8.98;;;7.60;99.90;;;;;;5082751;28;20444;-67
2024/01/30 07:28:49;;;;;;;11.05;9.52;;;7.60;99.90;;;;;;5080081;28;20040;-67
2024/01/30 07:31:15;;;;;;;9.70;8.80;;;7.70;99.90;;;;;;5084162;28;20052;-67
2024/01/30 07:33:41;;;;;;;11.02;9.05;;;7.70;99.90;;;;;;5080909;28;20043;-67
2024/01/30 07:36:07;;;;;;;10.98;8.23;;;7.70;99.90;;;;;;5081755;28;20041;-67
2024/01/30 07:38:33;;;;;;;10.82;8.95;;;7.80;99.90;;;;;;5080850;28;20405;-67
2024/01/30 07:40:58;;;;;;;9.55;8.60;;;7.80;99.90;;;;;;5095066;28;20044;-67
2024/01/30 07:43:24;;;;;;;10.48;8.95;;;7.80;99.90;;;;;;5081310;28;20088;-67
2024/01/30 07:45:50;;;;;;;11.20;8.48;;;7.80;99.90;;;;;;5117905;27;20047;-67
2024/01/30 07:48:15;;;;;;;10.82;8.52;;;7.80;99.90;;;;;;5109963;27;20449;-67
2024/01/30 07:50:41;;;;;;;13.25;9.50;;;7.80;99.90;;;;;;5085060;28;20039;-67
2024/01/30 07:53:07;;;;;;;14.75;8.30;;;8.00;99.90;;;;;;5082574;28;20043;-67
2024/01/30 07:55:33;;;;;;;10.85;8.90;;;7.80;99.90;;;;;;5077021;28;20171;-67
2024/01/30 07:57:59;;;;;;;9.82;8.75;;;7.90;99.90;;;;;;5112983;27;20078;-67
2024/01/30 08:00:25;;;;;;;11.88;8.57;;;7.80;99.90;;;;;;5080516;28;20433;-67
2024/01/30 08:02:55;;;;;;;11.30;8.95;;;7.80;99.90;;;;;;5082824;28;20040;-67
2024/01/30 08:05:22;;;;;;;9.32;7.80;;;7.80;99.90;;;;;;5082973;28;20055;-67
2024/01/30 08:07:48;;;;;;;10.50;8.55;;;7.90;99.90;;;;;;5086690;28;20455;-67
2024/01/30 08:10:14;;;;;;;13.43;8.38;;;7.90;99.90;;;;;;5061258;28;20055;-67
2024/01/30 08:12:40;;;;;;;8.93;7.82;;;7.90;99.90;;;;;;5082848;28;20048;-67
2024/01/30 08:15:07;;;;;;;9.73;8.65;;;8.00;99.90;;;;;;5078160;28;20119;-67
2024/01/30 08:17:33;;;;;;;10.90;8.20;;;8.00;99.90;;;;;;5113998;27;20036;-67
2024/01/30 08:19:58;;;;;;;10.73;8.40;;;8.00;99.90;;;;;;5080853;28;20086;-67
2024/01/30 08:22:24;;;;;;;10.57;8.15;;;8.00;99.90;;;;;;5084287;28;20043;-67
2024/01/30 08:24:50;;;;;;;12.95;8.52;;;8.10;99.90;;;;;;5078398;28;20619;-67
2024/01/30 08:27:15;;;;;;;12.73;8.40;;;8.10;99.90;;;;;;5079550;28;20036;-67
2024/01/30 08:29:41;;;;;;;15.27;8.25;;;8.10;99.90;;;;;;5079117;28;20047;-67
2024/01/30 08:32:07;;;;;;;9.57;7.97;;;8.10;99.90;;;;;;5081256;28;20047;-67
2024/01/30 08:34:33;;;;;;;8.82;7.47;;;8.10;99.90;;;;;;5076407;28;20081;-67
2024/01/30 08:36:59;;;;;;;9.38;6.97;;;8.20;99.90;;;;;;5078728;28;20106;-67
2024/01/30 08:39:25;;;;;;;11.48;8.63;;;8.20;99.90;;;;;;5083225;28;20052;-67
2024/01/30 08:41:51;;;;;;;8.60;7.57;;;8.30;99.90;;;;;;5079690;28;20111;-67
2024/01/30 08:44:17;;;;;;;9.73;8.15;;;8.30;99.90;;;;;;5085346;28;20059;-67
2024/01/30 08:46:46;;;;;;;12.43;8.63;;;8.30;99.90;;;;;;5113347;27;20063;-67
2024/01/30 08:49:13;;;;;;;9.77;8.15;;;8.30;99.90;;;;;;5077879;28;20032;-67
2024/01/30 08:51:39;;;;;;;12.55;7.75;;;8.30;99.90;;;;;;5071171;28;20547;-67
2024/01/30 08:54:05;;;;;;;12.07;7.68;;;8.40;99.90;;;;;;5112585;27;20040;-67
2024/01/30 08:56:30;;;;;;;9.70;8.20;;;8.50;99.90;;;;;;5079196;28;20524;-66
2024/01/30 08:58:56;;;;;;;9.00;8.10;;;8.50;99.90;;;;;;5080469;28;20117;-67
2024/01/30 09:01:22;;;;;;;8.65;7.75;;;8.50;99.90;;;;;;5081363;28;20024;-67
2024/01/30 09:03:47;;;;;;;9.20;7.78;;;8.60;99.90;;;;;;5081927;28;20482;-67
2024/01/30 09:06:13;;;;;;;17.58;8.20;;;8.60;99.90;;;;;;5114182;27;20422;-67
2024/01/30 09:08:39;;;;;;;10.10;7.90;;;8.60;99.90;;;;;;5108873;27;20056;-67
2024/01/30 09:11:15;;;;;;;13.10;7.78;;;8.60;99.90;;;;;;5112031;27;20077;-67
2024/01/30 09:13:41;;;;;;;9.43;8.07;;;8.60;99.90;;;;;;5081402;28;20062;-67
2024/01/30 09:16:07;;;;;;;10.10;7.75;;;8.60;99.90;;;;;;5078701;28;20041;-67
2024/01/30 09:18:33;;;;;;;9.25;8.23;;;8.70;99.90;;;;;;5077835;28;20505;-67
2024/01/30 09:20:59;;;;;;;9.82;7.90;;;8.80;99.90;;;;;;5081649;28;20051;-67
2024/01/30 09:23:26;;;;;;;10.18;8.02;;;8.80;99.90;;;;;;5081691;28;20055;-67
2024/01/30 09:25:52;;;;;;;9.60;8.10;;;8.80;99.90;;;;;;5081247;28;20047;-67
2024/01/30 09:28:18;;;;;;;11.25;8.18;;;8.80;99.90;;;;;;5080531;28;20036;-67
2024/01/30 09:30:44;;;;;;;12.48;7.90;;;8.90;99.90;;;;;;5076893;28;20096;-67
2024/01/30 09:33:09;;;;;;;10.98;8.07;;;9.00;99.90;;;;;;5080514;28;20037;-67
2024/01/30 09:35:36;;;;;;;11.73;7.93;;;9.00;99.90;;;;;;5111296;27;20090;-67
2024/01/30 09:38:02;;;;;;;10.02;7.80;;;9.00;99.90;;;;;;5063398;28;20044;-67
2024/01/30 09:40:28;;;;;;;12.05;7.60;;;9.10;99.90;;;;;;5084165;28;20023;-67
2024/01/30 09:42:55;;;;;;;8.90;7.80;;;9.20;99.90;;;;;;5114127;27;20047;-67
2024/01/30 09:45:27;;;;;;;12.07;7.63;;;9.40;99.90;;;;;;5080938;28;20153;-67
2024/01/30 09:47:53;;;;;;;10.82;7.47;;;9.30;99.90;;;;;;5080376;28;20105;-67
2024/01/30 09:50:20;;;;;;;14.90;8.70;;;9.40;99.90;;;;;;5114491;27;20047;-67
2024/01/30 09:52:47;;;;;;;12.25;8.18;;;9.40;99.90;;;;;;5114937;27;20399;-67
2024/01/30 09:55:13;;;;;;;11.80;8.27;;;9.50;99.90;;;;;;5077846;28;20044;-67
2024/01/30 09:57:39;;;;;;;10.75;7.68;;;9.50;99.90;;;;;;5083455;28;20036;-67
2024/01/30 10:00:09;;;;;;;10.18;6.93;;;9.60;99.90;;;;;;5077932;28;20416;-67
2024/01/30 10:02:35;;;;;;;10.82;7.40;;;9.60;99.90;;;;;;5076597;28;20127;-67
2024/01/30 10:05:01;;;;;;;10.40;7.45;;;9.90;99.90;;;;;;5079626;28;20040;-67
2024/01/30 10:07:27;;;;;;;9.48;7.60;;;9.70;99.90;;;;;;5076344;28;20051;-66
2024/01/30 10:09:53;;;;;;;7.80;6.97;;;9.80;99.90;;;;;;5077166;28;20502;-67
2024/01/30 10:12:19;;;;;;;8.60;6.95;;;9.80;99.90;;;;;;5078489;28;20127;-67
2024/01/30 10:14:45;;;;;;;11.32;7.63;;;9.80;99.90;;;;;;5081930;28;20445;-67
2024/01/30 10:17:12;;;;;;;17.58;8.07;;;9.90;99.90;;;;;;5079007;28;20116;-67
2024/01/30 10:19:39;;;;;;;11.57;7.60;;;9.90;99.90;;;;;;5080824;28;20446;-68
2024/01/30 10:22:05;;;;;;;12.68;7.82;;;10.00;99.90;;;;;;5064614;28;20131;-67
2024/01/30 10:24:33;;;;;;;8.65;6.82;;;10.00;99.90;;;;;;5111501;27;20036;-67
2024/01/30 10:26:59;;;;;;;13.07;7.28;;;10.10;99.90;;;;;;5080860;28;20036;-67
2024/01/30 10:29:24;;;;;;;9.68;7.25;;;10.20;99.90;;;;;;5116942;27;20044;-67
2024/01/30 10:32:23;;;;;;;11.02;7.63;;;10.20;99.90;;;;;;5061128;28;20071;-67
2024/01/30 10:34:48;;;;;;;16.65;8.38;;;10.20;99.90;;;;;;5075625;28;20592;-67
2024/01/30 10:37:16;;;;;;;13.60;7.68;;;10.40;99.90;;;;;;5113956;27;20087;-67
2024/01/30 10:39:46;;;;;;;10.98;7.93;;;10.30;99.90;;;;;;5080630;28;20040;-67
2024/01/30 10:42:18;;;;;;;14.32;8.02;;;10.30;99.90;;;;;;5110596;28;20047;-67
2024/01/30 10:45:17;;;;;;;12.43;7.55;;;10.30;99.90;;;;;;5079097;28;20028;-67
2024/01/30 10:47:52;;;;;;;10.43;8.00;;;10.20;99.90;;;;;;5045812;28;20086;-67
2024/01/30 10:50:18;;;;;;;10.13;7.72;;;10.30;99.90;;;;;;5078369;28;20057;-67
2024/01/30 10:52:45;;;;;;;9.73;7.68;;;10.30;99.90;;;;;;5079731;28;20044;-67
2024/01/30 10:55:10;;;;;;;12.70;7.53;;;10.30;99.90;;;;;;5080007;28;20382;-67
2024/01/30 10:57:37;;;;;;;14.20;8.25;;;10.30;99.90;;;;;;5074260;28;20041;-67
2024/01/30 11:00:10;;;;;;;14.95;7.75;;;10.30;99.90;;;;;;5085329;28;20043;-67
2024/01/30 11:02:39;;;;;;;11.30;7.60;;;10.30;99.90;;;;;;5079959;28;20036;-67
2024/01/30 11:05:05;;;;;;;14.65;8.82;;;10.30;99.90;;;;;;5076844;28;20050;-67
2024/01/30 11:07:31;;;;;;;15.32;9.50;;;10.30;99.90;;;;;;5075972;28;20050;-67
2024/01/30 11:10:02;;;;;;;11.55;7.70;;;10.30;99.90;;;;;;5081025;28;20452;-67
2024/01/30 11:12:29;;;;;;;9.38;7.30;;;10.20;99.90;;;;;;5078703;28;20531;-67
2024/01/30 11:15:05;;;;;;;18.17;8.38;;;10.40;99.90;;;;;;5075893;28;20047;-67
2024/01/30 11:18:06;;;;;;;12.25;8.85;;;10.30;99.90;;;;;;5108546;27;20040;-67
2024/01/30 11:20:33;;;;;;;9.73;8.52;;;10.30;99.90;;;;;;5039769;28;20566;-67
2024/01/30 11:23:01;;;;;;;15.55;9.02;;;10.30;99.90;;;;;;5061359;28;20516;-67
2024/01/30 11:25:27;;;;;;;11.23;8.23;;;10.30;99.90;;;;;;5073963;28;20044;-67
2024/01/30 11:27:54;;;;;;;16.83;9.05;;;10.40;99.90;;;;;;5078498;28;20028;-67
2024/01/30 11:30:25;;;;;;;12.45;8.65;;;10.30;99.90;;;;;;5109726;27;20131;-66
2024/01/30 11:33:20;;;;;;;15.57;9.10;;;10.30;99.90;;;;;;5085222;28;20494;-67
2024/01/30 11:35:46;;;;;;;11.98;8.98;;;10.30;99.90;;;;;;5071937;28;20044;-67
2024/01/30 11:38:14;;;;;;;11.57;9.32;;;10.30;99.90;;;;;;5078399;28;20040;-66
2024/01/30 11:40:40;;;;;;;12.40;9.55;;;10.30;99.90;;;;;;5080418;28;20044;-67
2024/01/30 11:43:08;;;;;;;12.80;8.63;;;10.40;99.90;;;;;;5078425;28;20084;-66
2024/01/30 11:45:36;;;;;;;12.63;9.13;;;10.50;99.90;;;;;;5085185;28;20509;-67
2024/01/30 11:48:05;;;;;;;12.23;9.18;;;10.60;99.90;;;;;;5082219;28;20051;-67
2024/01/30 11:50:35;;;;;;;13.57;9.70;;;10.60;99.90;;;;;;5084179;28;20493;-66
2024/01/30 11:53:01;;;;;;;13.18;9.23;;;10.60;99.90;;;;;;5078525;28;20032;-67
2024/01/30 11:55:27;;;;;;;12.20;9.40;;;10.60;99.90;;;;;;5082838;28;20036;-67
2024/01/30 11:57:57;;;;;;;11.70;8.65;;;10.80;99.90;;;;;;5080021;28;20043;-67
2024/01/30 12:00:23;;;;;;;10.50;9.27;;;10.80;99.90;;;;;;5077098;28;20036;-67
2024/01/30 12:02:50;;;;;;;13.65;10.18;;;10.70;99.90;;;;;;5080112;28;20048;-67
2024/01/30 12:05:18;;;;;;;16.92;8.98;;;10.70;99.90;;;;;;5079135;28;20040;-67
2024/01/30 12:07:46;;;;;;;12.48;6.97;;;10.70;99.90;;;;;;5077347;28;20044;-67
2024/01/30 12:10:13;;;;;;;13.20;6.63;;;10.60;99.90;;;;;;5083372;28;20068;-67
2024/01/30 12:12:41;;;;;;;16.40;6.70;;;10.60;99.90;;;;;;5081532;28;22422;-67
2024/01/30 12:15:07;;;;;;;12.13;6.47;;;10.40;99.90;;;;;;5085396;28;20032;-67
2024/01/30 12:17:37;;;;;;;18.60;5.55;;;10.40;99.90;;;;;;5083310;28;20554;-67
2024/01/30 12:20:06;;;;;;;12.00;5.40;;;10.30;99.90;;;;;;5078774;28;20046;-67
2024/01/30 12:22:37;;;;;;;10.77;4.50;;;10.30;99.90;;;;;;5082327;28;20098;-67
2024/01/30 12:25:04;;;;;;;11.65;4.15;;;10.30;99.90;;;;;;5083995;28;20106;-67
2024/01/30 12:27:30;;;;;;;9.30;4.10;;;10.30;99.90;;;;;;5079358;28;20471;-67
2024/01/30 12:29:57;;;;;;;7.53;3.15;;;10.30;99.90;;;;;;5084954;28;20024;-67
2024/01/30 12:32:24;;;;;;;5.00;1.55;;;10.30;99.90;;;;;;5078723;28;20036;-67
2024/01/30 12:34:49;;;;;;;3.45;1.40;;;10.40;99.90;;;;;;5116291;27;20379;-67
2024/01/30 12:37:19;;;;;;;2.53;0.98;;;10.30;99.90;;;;;;5084716;28;20051;-66
2024/01/30 12:39:45;;;;;;;2.92;0.98;;;10.30;99.90;;;;;;5081482;28;20036;-66